Time;durP1;ratioP1;P1;durP2;ratioP2;P2;SDS_P1;SDS_P2;PMS_P1;PMS_P2;Temp;Humidity;BMP_temperature;BMP_pressure;BME280_temperature;BME280_humidity;BME280_pressure;Samples;Min_cycle;Max_cycle;Signal;HPM_P1;HPM_P2
2022/09/18 00:02:25;;;;;;;2.65;0.57;;;;;;;19.73;47.60;101433.28;4976103;28;20038;-65
2022/09/18 00:04:51;;;;;;;1.92;0.60;;;;;;;19.73;47.37;101433.28;4993000;28;20027;-65
2022/09/18 00:07:17;;;;;;;2.08;0.77;;;;;;;19.72;48.15;101423.44;4992269;28;20083;-65
2022/09/18 00:09:43;;;;;;;5.18;0.70;;;;;;;19.75;47.54;101432.09;4992592;28;20030;-65
2022/09/18 00:12:08;;;;;;;5.25;0.45;;;;;;;19.74;47.30;101435.81;4993266;28;20031;-66
2022/09/18 00:14:34;;;;;;;1.60;0.47;;;;;;;19.75;47.53;101437.53;4992452;28;20027;-65
2022/09/18 00:17:00;;;;;;;2.05;0.57;;;;;;;19.72;47.10;101427.00;4992900;28;20054;-65
2022/09/18 00:19:25;;;;;;;1.88;0.47;;;;;;;19.70;47.90;101433.63;4976725;28;20488;-65
2022/09/18 00:21:50;;;;;;;0.82;0.35;;;;;;;19.72;47.82;101431.59;4976093;28;20118;-65
2022/09/18 00:24:17;;;;;;;1.75;0.40;;;;;;;19.71;47.65;101429.88;4976811;28;20102;-64
2022/09/18 00:26:43;;;;;;;3.00;0.80;;;;;;;19.71;47.54;101430.72;4975985;28;20038;-65
2022/09/18 00:29:09;;;;;;;3.88;0.55;;;;;;;19.72;47.04;101431.59;4992045;28;20034;-65
2022/09/18 00:31:36;;;;;;;0.98;0.65;;;;;;;19.70;47.94;101433.63;4976033;28;20069;-65
2022/09/18 00:34:06;;;;;;;1.23;0.60;;;;;;;19.69;47.70;101426.50;4976302;28;20082;-65
2022/09/18 00:36:31;;;;;;;17.25;0.63;;;;;;;19.69;47.35;101426.50;4991617;28;20035;-65
2022/09/18 00:39:01;;;;;;;1.17;0.50;;;;;;;19.70;47.56;101417.31;4991812;28;20027;-65
2022/09/18 00:41:38;;;;;;;1.88;0.50;;;;;;;19.69;47.49;101415.63;4976372;28;20030;-65
2022/09/18 00:44:32;;;;;;;0.50;0.50;;;;;;;19.72;47.63;101428.88;4991769;28;20031;-65
2022/09/18 00:47:03;;;;;;;;;;;;;;;19.70;47.47;101425.47;4992385;28;20066;-65
2022/09/18 00:49:28;;;;;;;2.75;0.63;;;;;;;19.69;47.21;101426.50;4992745;28;20000;-65
2022/09/18 00:51:56;;;;;;;3.42;0.50;;;;;;;19.68;48.19;101425.63;4993111;28;20054;-65
2022/09/18 00:54:33;;;;;;;1.67;0.75;;;;;;;19.69;47.80;101418.34;4992149;28;20117;-65
2022/09/18 00:57:04;;;;;;;1.23;0.68;;;;;;;19.62;47.60;101425.50;4991886;28;20033;-65
2022/09/18 00:59:31;;;;;;;4.82;0.80;;;;;;;19.61;47.98;101440.09;4974998;28;20022;-65
2022/09/18 01:01:58;;;;;;;5.47;1.00;;;;;;;19.60;47.70;101446.56;4991810;28;20027;-64
2022/09/18 01:04:24;;;;;;;6.55;1.17;;;;;;;19.60;47.59;101449.28;4958894;28;20050;-65
2022/09/18 01:06:54;;;;;;;3.45;0.77;;;;;;;19.58;47.75;101430.44;4975778;28;20029;-64
2022/09/18 01:09:42;;;;;;;4.00;1.42;;;;;;;19.57;47.71;101419.75;4975383;28;20034;-65
2022/09/18 01:12:36;;;;;;;2.03;0.90;;;;;;;19.54;48.38;101420.09;4974439;28;20061;-65
2022/09/18 01:15:08;;;;;;;3.63;1.10;;;;;;;19.51;48.66;101425.88;4991102;28;20033;-65
2022/09/18 01:18:00;;;;;;;1.52;0.80;;;;;;;19.52;48.32;101428.41;4990107;28;20034;-65
2022/09/18 01:21:03;;;;;;;2.23;1.17;;;;;;;19.51;48.25;101423.16;4973858;28;20129;-65
2022/09/18 01:23:58;;;;;;;2.17;0.80;;;;;;;19.50;48.62;101424.16;4990177;28;20062;-65
2022/09/18 01:26:33;;;;;;;3.53;0.70;;;;;;;19.51;48.44;101423.16;4989641;28;20027;-65
2022/09/18 01:29:04;;;;;;;1.70;0.47;;;;;;;19.50;48.34;101426.88;4990055;28;20033;-65
2022/09/18 01:31:52;;;;;;;2.38;0.80;;;;;;;19.51;48.66;101425.88;4990375;28;20037;-65
2022/09/18 01:34:45;;;;;;;2.65;0.63;;;;;;;19.50;48.73;101425.00;4969229;28;20038;-65
2022/09/18 01:37:45;;;;;;;2.15;0.73;;;;;;;19.43;48.71;101429.41;4973786;28;20031;-67
2022/09/18 01:40:13;;;;;;;5.38;0.90;;;;;;;19.38;49.22;101420.06;4963317;28;20039;-68
2022/09/18 01:42:40;;;;;;;3.58;0.50;;;;;;;19.27;49.00;101417.69;4974647;28;20034;-71
2022/09/18 01:45:11;;;;;;;1.75;0.47;;;;;;;19.19;48.91;101430.28;4973329;28;20400;-70
2022/09/18 01:47:51;;;;;;;1.05;0.40;;;;;;;19.06;49.56;101424.50;4957280;28;20031;-68
2022/09/18 01:50:17;;;;;;;0.45;0.38;;;;;;;18.98;49.84;101429.91;4973557;28;20035;-66
2022/09/18 01:53:11;;;;;;;3.22;0.77;;;;;;;18.92;49.99;101427.91;4957336;28;20034;-66
2022/09/18 01:55:38;;;;;;;1.17;0.38;;;;;;;18.87;49.67;101422.09;4970601;28;20055;-65
2022/09/18 01:58:07;;;;;;;3.63;0.47;;;;;;;18.88;48.87;101417.53;4973306;28;20034;-65
2022/09/18 02:00:35;;;;;;;2.80;0.30;;;;;;;18.83;49.94;101415.31;4974317;28;20047;-66
2022/09/18 02:03:14;;;;;;;3.50;0.30;;;;;;;18.78;49.85;101408.69;4973344;28;20081;-67
2022/09/18 02:05:42;;;;;;;1.10;0.20;;;;;;;18.75;49.59;101414.47;4957450;28;20093;-67
2022/09/18 02:08:17;;;;;;;2.95;0.30;;;;;;;18.72;49.42;101406.66;4973173;28;20023;-66
2022/09/18 02:10:59;;;;;;;1.48;0.22;;;;;;;18.67;50.03;101401.75;4957334;28;20030;-65
2022/09/18 02:13:28;;;;;;;0.80;0.50;;;;;;;18.65;49.89;101397.50;4973254;28;20031;-64
2022/09/18 02:15:57;;;;;;;0.73;0.22;;;;;;;18.61;50.16;101396.97;4974391;28;20114;-66
2022/09/18 02:18:39;;;;;;;0.95;0.38;;;;;;;18.63;50.00;101396.78;4956910;28;20045;-66
2022/09/18 02:21:10;;;;;;;1.13;0.50;;;;;;;18.61;49.72;101396.97;4973515;28;20370;-65
2022/09/18 02:23:36;;;;;;;2.55;0.50;;;;;;;18.63;50.40;101404.94;4973124;28;20030;-65
2022/09/18 02:26:05;;;;;;;1.02;0.88;;;;;;;18.65;49.79;101409.19;4976117;28;20031;-65
2022/09/18 02:28:32;;;;;;;4.80;0.47;;;;;;;18.71;49.67;101413.94;4977505;28;20031;-65
2022/09/18 02:30:57;;;;;;;0.77;0.68;;;;;;;18.75;49.21;101409.91;4961480;28;20031;-65
2022/09/18 02:33:32;;;;;;;2.47;1.10;;;;;;;18.81;49.39;101411.09;4978216;28;20041;-64
2022/09/18 02:36:03;;;;;;;3.28;0.35;;;;;;;18.86;50.11;101406.00;4978569;28;20475;-65
2022/09/18 02:38:42;;;;;;;1.60;0.30;;;;;;;18.92;49.94;101410.75;4978940;28;20026;-65
2022/09/18 02:41:13;;;;;;;1.73;0.85;;;;;;;18.97;49.45;101411.94;4981195;28;20022;-64
2022/09/18 02:44:00;;;;;;;0.80;0.35;;;;;;;19.00;49.84;101400.75;4980283;28;20047;-64
2022/09/18 02:46:44;;;;;;;2.13;0.85;;;;;;;19.06;49.27;101394.63;4980141;28;20027;-65
2022/09/18 02:49:32;;;;;;;2.30;0.75;;;;;;;19.14;49.48;101394.63;4964880;28;20022;-64
2022/09/18 02:52:03;;;;;;;2.45;0.68;;;;;;;19.17;49.75;101401.59;4980994;28;20061;-64
2022/09/18 02:54:36;;;;;;;1.83;0.70;;;;;;;19.23;49.61;101402.78;4982114;28;20070;-65
2022/09/18 02:57:07;;;;;;;2.45;1.00;;;;;;;19.26;49.65;101397.00;4981592;28;20082;-64
2022/09/18 02:59:37;;;;;;;3.97;0.55;;;;;;;19.27;49.81;101393.25;4982300;28;20122;-65
2022/09/18 03:02:03;;;;;;;4.03;0.47;;;;;;;19.28;49.38;101394.94;4965823;28;20027;-65
2022/09/18 03:04:28;;;;;;;0.88;0.32;;;;;;;19.31;49.34;101391.91;4966510;28;20500;-65
2022/09/18 03:06:54;;;;;;;4.07;0.30;;;;;;;19.26;49.92;101383.41;4966427;28;20026;-64
2022/09/18 03:09:20;;;;;;;2.78;0.60;;;;;;;19.27;49.87;101385.09;4982614;28;20041;-64
2022/09/18 03:11:46;;;;;;;0.82;0.30;;;;;;;19.24;49.84;101380.00;4984218;28;20031;-65
2022/09/18 03:14:11;;;;;;;0.57;0.20;;;;;;;19.28;50.22;101384.09;4966476;28;20126;-62
2022/09/18 03:16:37;;;;;;;1.92;0.40;;;;;;;19.33;49.76;101387.97;4982986;28;20461;-62
2022/09/18 03:19:02;;;;;;;1.13;0.55;;;;;;;19.31;49.83;101378.31;4984476;28;20123;-62
2022/09/18 03:21:28;;;;;;;2.17;0.38;;;;;;;19.29;49.45;101361.34;4984851;28;20061;-65
2022/09/18 03:23:54;;;;;;;0.57;0.28;;;;;;;19.35;49.85;101393.22;4984702;28;20105;-62
2022/09/18 03:26:19;;;;;;;3.45;0.30;;;;;;;19.37;49.75;101388.50;4983428;28;20031;-62
2022/09/18 03:28:45;;;;;;;0.65;0.25;;;;;;;19.34;49.87;101377.97;4985052;28;20031;-63
2022/09/18 03:31:10;;;;;;;1.23;0.47;;;;;;;19.37;49.80;101372.19;4969596;28;20404;-64
2022/09/18 03:33:36;;;;;;;1.98;0.45;;;;;;;19.36;49.72;101374.06;4985217;28;20065;-64
2022/09/18 03:36:03;;;;;;;1.20;0.68;;;;;;;19.36;49.66;101381.34;4969682;28;20026;-64
2022/09/18 03:38:28;;;;;;;2.75;0.57;;;;;;;19.40;49.75;101377.31;4969037;28;20500;-64
2022/09/18 03:40:54;;;;;;;3.30;0.50;;;;;;;19.38;49.68;101388.34;4985549;28;20027;-65
2022/09/18 03:43:19;;;;;;;2.72;0.70;;;;;;;19.36;49.91;101381.34;4986415;28;20027;-64
2022/09/18 03:45:44;;;;;;;2.03;0.60;;;;;;;19.36;50.05;101378.63;4969753;28;20034;-64
2022/09/18 03:48:10;;;;;;;2.45;1.02;;;;;;;19.35;49.79;101382.34;4970168;28;20145;-65
2022/09/18 03:50:35;;;;;;;0.82;0.75;;;;;;;19.32;49.66;101380.00;4985614;28;20035;-65
2022/09/18 03:53:01;;;;;;;1.42;0.98;;;;;;;19.32;50.18;101377.31;4986744;28;20551;-65
2022/09/18 03:55:26;;;;;;;1.95;0.35;;;;;;;19.29;50.00;101380.34;4985508;28;20034;-64
2022/09/18 03:57:52;;;;;;;3.13;1.23;;;;;;;19.27;50.36;101379.66;4985511;28;20027;-65
2022/09/18 04:00:17;;;;;;;5.03;1.02;;;;;;;19.29;50.45;101383.91;4969433;28;20045;-65
2022/09/18 04:02:43;;;;;;;5.35;0.93;;;;;;;19.28;49.89;101375.94;4985414;28;20401;-64
2022/09/18 04:05:09;;;;;;;1.88;0.65;;;;;;;19.25;50.60;101370.84;4985733;28;20535;-65
2022/09/18 04:07:34;;;;;;;4.32;1.20;;;;;;;19.25;49.85;101370.84;4969788;28;20049;-65
2022/09/18 04:10:00;;;;;;;3.13;1.00;;;;;;;19.27;49.86;101360.63;4984615;28;20058;-65
2022/09/18 04:12:25;;;;;;;2.95;0.85;;;;;;;19.27;49.99;101363.34;4969979;28;20049;-65
2022/09/18 04:14:50;;;;;;;5.05;1.10;;;;;;;19.21;49.79;101342.34;4985244;28;20034;-64
2022/09/18 04:17:16;;;;;;;3.22;0.77;;;;;;;19.26;50.19;101348.94;4986661;28;20050;-64
2022/09/18 04:19:41;;;;;;;5.05;1.60;;;;;;;19.26;49.94;101359.81;4969405;28;20039;-65
2022/09/18 04:22:07;;;;;;;5.47;0.93;;;;;;;19.26;49.93;101359.81;4985794;28;20081;-64
2022/09/18 04:24:35;;;;;;;1.88;0.82;;;;;;;19.25;50.37;101357.25;4985813;28;20030;-65
2022/09/18 04:27:00;;;;;;;4.10;0.43;;;;;;;19.27;50.25;101356.06;4986008;28;20027;-65
2022/09/18 04:29:26;;;;;;;2.33;0.90;;;;;;;19.29;50.17;101361.34;4985326;28;20061;-64
2022/09/18 04:31:51;;;;;;;1.65;0.90;;;;;;;19.28;49.96;101363.22;4984865;28;20050;-64
2022/09/18 04:34:16;;;;;;;0.98;0.57;;;;;;;19.30;50.57;101355.72;4987041;28;20038;-65
2022/09/18 04:36:42;;;;;;;2.25;0.55;;;;;;;19.25;50.38;101351.81;4985251;28;20053;-65
2022/09/18 04:39:07;;;;;;;2.22;0.80;;;;;;;19.26;50.19;101370.69;4968700;28;20035;-65
2022/09/18 04:41:33;;;;;;;3.22;0.70;;;;;;;19.24;50.14;101366.41;4953252;28;20102;-65
2022/09/18 04:43:58;;;;;;;4.88;0.85;;;;;;;19.24;49.89;101366.41;4985168;28;20035;-65
2022/09/18 04:46:23;;;;;;;3.83;1.08;;;;;;;19.23;49.48;101362.88;4985152;28;20034;-64
2022/09/18 04:48:49;;;;;;;4.10;0.75;;;;;;;19.21;49.79;101361.34;4985504;28;20024;-65
2022/09/18 04:51:14;;;;;;;5.85;0.80;;;;;;;19.21;50.30;101359.47;4985083;28;20034;-64
2022/09/18 04:53:40;;;;;;;1.90;0.95;;;;;;;19.19;50.57;101359.66;4953043;28;20129;-64
2022/09/18 04:56:06;;;;;;;3.72;1.52;;;;;;;19.20;50.47;101365.94;4985520;28;20033;-65
2022/09/18 04:58:31;;;;;;;3.33;0.77;;;;;;;19.20;50.12;101363.22;4985104;28;20023;-65
2022/09/18 05:00:57;;;;;;;5.30;0.80;;;;;;;19.17;49.86;101358.13;4968983;28;20055;-64
2022/09/18 05:03:22;;;;;;;2.30;1.00;;;;;;;19.14;49.80;101343.03;4984766;28;20047;-64
2022/09/18 05:05:49;;;;;;;1.85;0.75;;;;;;;19.18;50.50;101351.66;4985232;28;20046;-64
2022/09/18 05:08:14;;;;;;;3.00;1.00;;;;;;;19.16;50.13;101357.28;4968457;28;20018;-64
2022/09/18 05:10:41;;;;;;;3.10;1.33;;;;;;;19.16;49.91;101354.56;4985021;28;20046;-65
2022/09/18 05:13:07;;;;;;;1.63;0.80;;;;;;;19.14;49.93;101358.47;4985422;28;20039;-65
2022/09/18 05:15:33;;;;;;;1.10;0.85;;;;;;;19.11;50.63;101356.94;4984683;28;20027;-65
2022/09/18 05:18:03;;;;;;;1.75;0.65;;;;;;;19.08;50.32;101351.84;4984946;28;20127;-64
2022/09/18 05:20:30;;;;;;;19.35;1.23;;;;;;;19.07;50.11;101361.00;4968086;28;20019;-66
2022/09/18 05:22:56;;;;;;;4.07;0.95;;;;;;;19.04;50.08;101366.78;4984588;28;20031;-65
2022/09/18 05:25:23;;;;;;;2.38;0.90;;;;;;;19.02;50.26;101359.81;4985144;28;20058;-64
2022/09/18 05:28:00;;;;;;;3.58;0.93;;;;;;;18.96;49.88;101353.22;4984481;28;20026;-64
2022/09/18 05:30:26;;;;;;;6.20;1.55;;;;;;;18.94;49.95;101349.81;4983405;28;20477;-65
2022/09/18 05:32:58;;;;;;;2.80;0.70;;;;;;;18.94;50.18;101357.97;4983888;28;20065;-65
2022/09/18 05:35:24;;;;;;;7.57;1.00;;;;;;;18.96;49.79;101352.34;4983400;28;20057;-65
2022/09/18 05:37:51;;;;;;;6.95;1.63;;;;;;;18.96;49.79;101346.94;4984865;28;20038;-64
2022/09/18 05:40:18;;;;;;;4.18;1.00;;;;;;;18.97;49.36;101352.22;4984066;28;20221;-65
2022/09/18 05:42:44;;;;;;;6.40;0.80;;;;;;;19.00;50.08;101354.59;4984546;28;20404;-65
2022/09/18 05:45:10;;;;;;;1.65;0.70;;;;;;;18.99;50.12;101357.44;4985295;28;20046;-66
2022/09/18 05:47:35;;;;;;;1.65;0.52;;;;;;;18.99;49.63;101358.31;4984972;28;20037;-64
2022/09/18 05:50:01;;;;;;;8.35;1.15;;;;;;;19.01;50.05;101358.16;4984387;28;20085;-65
2022/09/18 05:52:26;;;;;;;3.17;1.08;;;;;;;19.00;49.70;101360.00;4984836;28;20066;-65
2022/09/18 05:54:51;;;;;;;5.15;1.00;;;;;;;19.00;49.09;101357.31;4985257;28;20033;-65
2022/09/18 05:57:17;;;;;;;1.60;1.25;;;;;;;18.99;50.06;101358.31;4984629;28;20484;-65
2022/09/18 05:59:42;;;;;;;3.50;0.57;;;;;;;18.97;49.48;101357.63;4967542;28;20054;-65
2022/09/18 06:02:09;;;;;;;5.32;1.40;;;;;;;18.95;50.27;101356.97;4988413;28;20034;-64
2022/09/18 06:04:34;;;;;;;5.40;0.82;;;;;;;19.00;49.51;101353.72;4987272;28;20436;-65
2022/09/18 06:07:00;;;;;;;2.33;0.85;;;;;;;18.98;50.15;101364.75;4988854;28;20105;-65
2022/09/18 06:09:26;;;;;;;3.47;1.08;;;;;;;18.99;49.63;101363.75;4987394;28;20495;-64
2022/09/18 06:11:52;;;;;;;0.98;0.52;;;;;;;18.99;49.65;101369.16;4988303;28;20085;-64
2022/09/18 06:14:17;;;;;;;4.35;1.17;;;;;;;19.01;49.50;101369.84;4987163;28;20440;-64
2022/09/18 06:16:43;;;;;;;6.75;0.80;;;;;;;19.02;49.59;101368.81;4986847;28;20477;-65
2022/09/18 06:19:08;;;;;;;2.13;0.77;;;;;;;19.12;49.37;101369.50;4971274;28;20034;-64
2022/09/18 06:21:34;;;;;;;1.17;0.60;;;;;;;19.16;49.91;101370.84;4970794;28;20086;-64
2022/09/18 06:23:59;;;;;;;3.20;0.70;;;;;;;19.23;49.13;101372.88;4987406;28;20030;-65
2022/09/18 06:26:25;;;;;;;3.22;0.70;;;;;;;19.28;49.75;101378.66;4986523;28;20030;-64
2022/09/18 06:28:50;;;;;;;1.27;0.55;;;;;;;19.25;48.96;101366.25;4988147;28;20027;-65
2022/09/18 06:31:16;;;;;;;0.60;0.50;;;;;;;19.33;49.45;101374.41;4987593;28;20532;-64
2022/09/18 06:33:41;;;;;;;1.20;0.50;;;;;;;19.38;49.40;101377.47;4988171;28;20030;-64
2022/09/18 06:36:10;;;;;;;2.30;0.77;;;;;;;19.40;49.02;101361.00;4988396;28;20031;-66
2022/09/18 06:38:36;;;;;;;3.30;0.68;;;;;;;19.44;49.35;101351.47;4971135;28;20027;-64
2022/09/18 06:41:01;;;;;;;5.53;0.35;;;;;;;19.51;49.43;101357.94;4970454;28;20027;-65
2022/09/18 06:43:27;;;;;;;1.48;0.80;;;;;;;19.57;49.23;101357.22;4955279;28;20035;-65
2022/09/18 06:45:53;;;;;;;1.23;0.50;;;;;;;19.58;49.05;101354.31;4987174;28;20035;-65
2022/09/18 06:48:18;;;;;;;1.60;0.70;;;;;;;19.60;49.00;101354.13;4970857;28;20396;-65
2022/09/18 06:50:50;;;;;;;2.60;0.63;;;;;;;19.67;49.29;101363.31;4986688;28;20037;-65
2022/09/18 06:53:15;;;;;;;1.98;0.50;;;;;;;19.73;49.23;101362.59;4970981;28;20033;-65
2022/09/18 06:55:41;;;;;;;0.95;0.43;;;;;;;19.80;49.06;101369.03;4987654;28;20098;-64
2022/09/18 06:58:06;;;;;;;0.57;0.40;;;;;;;19.84;48.73;101364.94;4987500;28;20045;-65
2022/09/18 07:00:32;;;;;;;2.50;1.05;;;;;;;19.88;48.63;101365.44;4954850;28;20055;-64
2022/09/18 07:02:59;;;;;;;5.68;0.90;;;;;;;19.91;49.40;101376.78;4988613;28;20035;-65
2022/09/18 07:05:25;;;;;;;3.65;0.75;;;;;;;19.93;49.67;101379.34;4987062;28;20078;-64
2022/09/18 07:07:51;;;;;;;4.63;0.77;;;;;;;19.96;49.43;101388.00;4970179;28;20022;-65
2022/09/18 07:10:16;;;;;;;2.03;1.30;;;;;;;19.95;49.04;101383.59;4986565;28;20118;-64
2022/09/18 07:12:47;;;;;;;3.03;0.80;;;;;;;20.00;48.92;101386.63;4984701;28;20027;-64
2022/09/18 07:15:12;;;;;;;4.55;0.50;;;;;;;20.02;49.19;101384.56;4988748;28;20082;-65
2022/09/18 07:17:38;;;;;;;3.38;0.52;;;;;;;20.08;49.37;101378.44;4971182;28;20484;-65
2022/09/18 07:20:03;;;;;;;4.10;0.80;;;;;;;20.15;49.27;101373.97;4988918;28;20070;-64
2022/09/18 07:22:29;;;;;;;0.80;0.70;;;;;;;20.23;48.69;101376.66;4988829;28;20031;-65
2022/09/18 07:24:55;;;;;;;1.95;0.90;;;;;;;20.35;48.64;101381.72;4956199;28;20069;-65
2022/09/18 07:27:20;;;;;;;5.22;0.55;;;;;;;20.47;48.41;101372.09;4989819;28;20034;-65
2022/09/18 07:29:45;;;;;;;1.00;0.70;;;;;;;20.53;48.09;101371.41;4957974;28;20173;-65
2022/09/18 07:32:11;;;;;;;1.67;0.95;;;;;;;20.55;48.70;101363.88;4972697;28;20031;-64
2022/09/18 07:34:36;;;;;;;3.30;0.80;;;;;;;20.64;47.97;101376.41;4972130;28;20030;-63
2022/09/18 07:37:02;;;;;;;2.58;0.90;;;;;;;20.67;48.35;101366.03;4973192;28;20038;-64
2022/09/18 07:39:27;;;;;;;1.35;0.88;;;;;;;20.69;48.08;101374.00;4988774;28;20027;-63
2022/09/18 07:41:53;;;;;;;1.42;0.70;;;;;;;20.77;48.20;101363.06;4988623;28;20050;-64
2022/09/18 07:44:18;;;;;;;2.63;1.20;;;;;;;20.83;47.72;101362.31;4972081;28;20570;-64
2022/09/18 07:46:44;;;;;;;3.30;0.90;;;;;;;20.93;48.13;101365.66;4971586;28;20081;-64
2022/09/18 07:49:09;;;;;;;1.80;0.73;;;;;;;21.04;47.13;101359.75;4972029;28;20022;-64
2022/09/18 07:51:34;;;;;;;4.00;0.90;;;;;;;21.21;47.26;101347.72;4956037;28;20030;-64
2022/09/18 07:54:00;;;;;;;2.78;0.60;;;;;;;21.43;47.18;101349.53;4971378;28;20082;-64
2022/09/18 07:56:25;;;;;;;1.80;0.70;;;;;;;21.58;47.07;101356.88;4988694;28;20084;-64
2022/09/18 07:58:51;;;;;;;1.27;0.50;;;;;;;21.66;46.87;101359.50;4971440;28;20030;-63
2022/09/18 08:01:16;;;;;;;4.68;0.68;;;;;;;21.63;47.47;101360.72;4987595;28;20046;-64
2022/09/18 08:03:41;;;;;;;4.13;0.50;;;;;;;21.60;47.30;101369.28;4988287;28;20034;-64
2022/09/18 08:06:07;;;;;;;3.30;0.70;;;;;;;21.53;47.65;101370.19;4988454;28;20129;-63
2022/09/18 08:08:34;;;;;;;1.33;0.50;;;;;;;21.44;47.42;101364.81;4972191;28;20122;-64
2022/09/18 08:10:59;;;;;;;2.28;0.85;;;;;;;21.34;46.96;101356.09;4974105;28;20034;-64
2022/09/18 08:13:25;;;;;;;2.63;0.73;;;;;;;21.23;48.00;101353.81;4974572;28;20038;-64
2022/09/18 08:15:50;;;;;;;1.35;1.00;;;;;;;21.13;47.70;101360.56;4974425;28;20037;-64
2022/09/18 08:18:16;;;;;;;1.15;0.75;;;;;;;21.07;47.56;101353.97;4972475;28;20564;-64
2022/09/18 08:20:41;;;;;;;0.70;0.65;;;;;;;21.10;47.85;101360.94;4970851;28;20031;-64
2022/09/18 08:23:10;;;;;;;4.05;0.57;;;;;;;21.07;47.24;101375.78;4971251;28;20027;-63
2022/09/18 08:25:36;;;;;;;2.20;1.63;;;;;;;21.03;47.87;101368.09;4987557;28;20048;-64
2022/09/18 08:28:03;;;;;;;3.33;0.73;;;;;;;21.03;48.12;101373.56;4986538;28;20050;-64
2022/09/18 08:30:29;;;;;;;2.58;0.82;;;;;;;21.00;47.83;101372.03;4986782;28;20057;-64
2022/09/18 08:33:01;;;;;;;4.43;0.65;;;;;;;20.98;48.11;101371.38;4969314;28;20031;-64
2022/09/18 08:35:27;;;;;;;;;;;;;;;20.96;47.84;101375.34;4986117;28;20030;-63
2022/09/18 08:37:54;;;;;;;3.28;0.80;;;;;;;20.91;47.56;101373.13;4985527;28;19929;-64
2022/09/18 08:40:21;;;;;;;2.55;0.68;;;;;;;20.92;47.78;101367.53;4986428;28;20105;-64
2022/09/18 08:43:13;;;;;;;2.30;1.27;;;;;;;20.95;47.86;101360.84;4970098;28;20057;-64
2022/09/18 08:45:57;;;;;;;2.15;0.63;;;;;;;20.97;47.44;101358.78;4984986;28;20089;-63
2022/09/18 08:48:28;;;;;;;1.77;0.73;;;;;;;21.00;47.98;101355.69;4985093;28;20102;-64
2022/09/18 08:50:59;;;;;;;4.13;1.52;;;;;;;21.00;47.77;101342.06;4984854;28;20067;-65
2022/09/18 08:53:33;;;;;;;1.77;0.77;;;;;;;21.00;47.11;101347.53;4983960;28;20033;-63
2022/09/18 08:55:59;;;;;;;0.75;0.75;;;;;;;20.92;47.19;101355.78;4984780;28;20031;-64
2022/09/18 08:58:30;;;;;;;1.38;0.70;;;;;;;20.83;47.25;101351.41;4984888;28;20030;-64
2022/09/18 09:01:00;;;;;;;3.30;0.82;;;;;;;20.78;47.59;101346.53;4984486;28;20047;-63
2022/09/18 09:03:33;;;;;;;2.35;0.73;;;;;;;20.72;47.63;101349.97;4968039;28;20046;-65
2022/09/18 09:06:07;;;;;;;1.08;0.77;;;;;;;20.67;47.64;101346.09;4968237;28;20038;-63
2022/09/18 09:08:57;;;;;;;2.60;1.08;;;;;;;20.59;47.74;101359.78;4984286;28;20026;-64
2022/09/18 09:11:43;;;;;;;1.38;0.60;;;;;;;20.51;48.00;101368.88;4986486;28;20027;-65
2022/09/18 09:14:20;;;;;;;2.10;0.77;;;;;;;20.47;47.52;101366.66;4986589;28;20033;-64
2022/09/18 09:17:03;;;;;;;3.20;0.80;;;;;;;20.40;47.69;101373.88;4985938;28;20033;-64
2022/09/18 09:19:40;;;;;;;1.65;0.80;;;;;;;20.37;47.87;101363.34;4985845;28;20085;-64
2022/09/18 09:22:24;;;;;;;2.33;0.80;;;;;;;20.32;48.18;101351.09;4985719;28;20095;-64
2022/09/18 09:25:10;;;;;;;6.97;1.10;;;;;;;20.29;47.56;101359.66;4969917;28;20055;-64
2022/09/18 09:27:42;;;;;;;2.10;1.05;;;;;;;20.24;47.89;101363.88;4970201;28;20022;-63
2022/09/18 09:30:18;;;;;;;5.32;1.25;;;;;;;20.17;47.91;101366.47;4986376;28;20476;-64
2022/09/18 09:32:45;;;;;;;4.60;0.98;;;;;;;20.19;47.41;101369.00;4969101;28;20057;-64
2022/09/18 09:35:20;;;;;;;2.80;0.93;;;;;;;20.18;48.02;101362.72;4986459;28;20607;-64
2022/09/18 09:37:47;;;;;;;2.58;1.13;;;;;;;20.18;47.40;101368.16;4985531;28;20046;-64
2022/09/18 09:40:20;;;;;;;2.22;0.73;;;;;;;20.17;48.03;101377.38;4986141;28;20559;-64
2022/09/18 09:42:54;;;;;;;2.25;0.70;;;;;;;20.18;47.68;101376.31;4969956;28;20026;-64
2022/09/18 09:45:29;;;;;;;2.72;0.80;;;;;;;20.20;47.31;101365.28;4969763;28;20026;-64
2022/09/18 09:48:10;;;;;;;1.60;0.88;;;;;;;20.22;47.86;101355.06;4986300;28;20054;-64
2022/09/18 09:50:37;;;;;;;1.38;0.88;;;;;;;20.24;47.98;101363.88;4969412;28;20161;-64
2022/09/18 09:53:06;;;;;;;0.80;0.55;;;;;;;20.22;47.27;101352.34;4986956;28;20026;-64
2022/09/18 09:56:00;;;;;;;2.50;0.77;;;;;;;20.22;47.66;101350.47;4971231;28;20027;-64
2022/09/18 09:58:40;;;;;;;1.25;0.93;;;;;;;20.21;47.95;101351.47;4970314;28;20110;-63
2022/09/18 10:01:21;;;;;;;4.47;1.20;;;;;;;20.19;48.15;101353.53;4969901;28;20051;-64
2022/09/18 10:03:50;;;;;;;1.00;0.85;;;;;;;20.17;47.76;101352.88;4970374;28;20069;-64
2022/09/18 10:06:37;;;;;;;5.22;1.02;;;;;;;20.14;47.45;101350.50;4969869;28;20118;-63
2022/09/18 10:09:14;;;;;;;1.38;0.90;;;;;;;20.10;47.87;101343.72;4988237;28;20027;-65
2022/09/18 10:11:42;;;;;;;7.15;0.88;;;;;;;20.11;48.03;101350.88;4987478;28;20083;-64
2022/09/18 10:14:20;;;;;;;2.47;1.25;;;;;;;20.14;48.01;101344.22;4986756;28;20087;-65
2022/09/18 10:16:48;;;;;;;3.25;1.40;;;;;;;20.12;47.62;101346.28;4986230;28;20027;-65
2022/09/18 10:19:15;;;;;;;1.55;1.00;;;;;;;20.08;48.11;101340.34;4986122;28;20029;-64
2022/09/18 10:21:41;;;;;;;3.47;1.50;;;;;;;20.11;47.61;101334.56;4986242;28;20023;-64
2022/09/18 10:24:29;;;;;;;1.60;0.95;;;;;;;20.22;47.95;101331.41;4986694;28;20089;-64
2022/09/18 10:27:05;;;;;;;8.27;0.75;;;;;;;20.33;47.85;101339.22;4987227;28;20022;-64
2022/09/18 10:29:30;;;;;;;2.47;0.95;;;;;;;20.37;48.08;101334.25;4970339;28;20035;-64
2022/09/18 10:31:58;;;;;;;4.53;1.25;;;;;;;20.47;47.68;101328.56;4987307;28;20035;-64
2022/09/18 10:34:47;;;;;;;1.02;0.68;;;;;;;20.56;47.98;101328.34;4987137;28;20077;-65
2022/09/18 10:37:17;;;;;;;2.03;0.90;;;;;;;20.72;47.18;101333.63;4986703;28;20019;-64
2022/09/18 10:39:53;;;;;;;3.60;1.00;;;;;;;20.88;47.29;101332.69;4987192;28;20031;-64
2022/09/18 10:42:23;;;;;;;2.83;1.13;;;;;;;21.11;47.17;101327.19;4987066;28;20027;-64
2022/09/18 10:45:01;;;;;;;3.75;0.73;;;;;;;21.25;47.01;101323.63;4986471;28;20026;-64
2022/09/18 10:47:32;;;;;;;1.52;0.90;;;;;;;21.27;47.11;101333.31;4990298;28;20041;-63
2022/09/18 10:50:10;;;;;;;2.03;1.42;;;;;;;21.20;47.47;101343.28;4974725;28;20082;-64
2022/09/18 10:52:47;;;;;;;1.80;0.73;;;;;;;21.10;47.44;101350.88;4991865;28;20023;-64
2022/09/18 10:55:21;;;;;;;0.80;0.60;;;;;;;21.05;48.05;101350.53;4990786;28;20046;-64
2022/09/18 10:57:46;;;;;;;5.10;1.23;;;;;;;21.03;47.80;101352.59;4990832;28;20399;-64
2022/09/18 11:00:12;;;;;;;1.55;0.82;;;;;;;21.01;47.72;101348.38;4990092;28;20057;-63
2022/09/18 11:02:40;;;;;;;1.83;1.30;;;;;;;20.98;47.60;101349.59;4991672;28;20082;-64
2022/09/18 11:05:17;;;;;;;4.15;1.58;;;;;;;21.02;47.09;101337.28;4974193;28;20121;-63
2022/09/18 11:07:49;;;;;;;3.35;1.23;;;;;;;21.13;47.23;101346.94;4990655;28;20023;-64
2022/09/18 11:10:17;;;;;;;0.75;0.70;;;;;;;21.17;47.32;101343.66;4974122;28;20027;-64
2022/09/18 11:12:50;;;;;;;2.75;0.80;;;;;;;21.19;47.46;101349.75;4990907;28;20187;-64
2022/09/18 11:15:17;;;;;;;6.00;1.05;;;;;;;21.23;47.80;101347.50;4991088;28;20046;-64
2022/09/18 11:17:51;;;;;;;1.80;1.30;;;;;;;21.21;47.31;101347.72;4991449;28;20425;-64
2022/09/18 11:20:24;;;;;;;2.92;1.38;;;;;;;21.20;47.39;101337.84;4975035;28;20042;-64
2022/09/18 11:22:49;;;;;;;4.60;1.40;;;;;;;21.16;47.56;101339.22;4991624;28;20023;-63
2022/09/18 11:25:26;;;;;;;4.55;1.05;;;;;;;21.12;46.99;101332.47;4975151;28;20050;-64
2022/09/18 11:27:52;;;;;;;2.10;1.20;;;;;;;21.12;47.36;101328.91;4975037;28;20395;-64
2022/09/18 11:30:26;;;;;;;3.80;1.23;;;;;;;21.08;47.51;101328.41;4990071;28;20038;-64
2022/09/18 11:33:01;;;;;;;4.07;1.13;;;;;;;21.00;47.95;101333.91;4990999;28;20054;-65
2022/09/18 11:35:28;;;;;;;4.47;0.90;;;;;;;20.92;47.99;101339.44;4974446;28;20034;-65
2022/09/18 11:37:59;;;;;;;2.60;1.00;;;;;;;20.86;48.23;101329.25;4990986;28;20045;-64
2022/09/18 11:40:32;;;;;;;3.25;1.00;;;;;;;20.78;47.83;101321.16;4973566;28;20070;-63